Time;durP1;ratioP1;P1;durP2;ratioP2;P2;SDS_P1;SDS_P2;PMS_P1;PMS_P2;Temp;Humidity;BMP_temperature;BMP_pressure;BME280_temperature;BME280_humidity;BME280_pressure;Samples;Min_cycle;Max_cycle;Signal;HPM_P1;HPM_P2
2022/04/13 00:02:03;;;;;;;2.45;1.80;;;9.80;67.30;;;;;;5060625;28;20040;-81
2022/04/13 00:04:29;;;;;;;1.55;1.20;;;9.70;67.40;;;;;;5078558;28;20021;-81
2022/04/13 00:06:55;;;;;;;3.08;1.90;;;9.70;67.40;;;;;;5079630;28;20017;-81
2022/04/13 00:09:21;;;;;;;1.70;1.50;;;9.70;67.40;;;;;;5064539;28;20017;-81
2022/04/13 00:11:46;;;;;;;1.52;1.42;;;9.70;67.40;;;;;;5079674;28;20063;-81
2022/04/13 00:14:12;;;;;;;2.47;1.52;;;9.60;67.60;;;;;;5080122;28;20028;-81
2022/04/13 00:16:39;;;;;;;1.33;1.23;;;9.60;67.70;;;;;;5079999;28;20036;-81
2022/04/13 00:19:05;;;;;;;1.23;1.13;;;9.60;67.80;;;;;;5078999;28;20021;-81
2022/04/13 00:21:31;;;;;;;1.80;1.50;;;9.60;68.00;;;;;;5078825;28;20370;-81
2022/04/13 00:23:57;;;;;;;2.17;1.50;;;9.50;68.00;;;;;;5063480;28;20075;-81
2022/04/13 00:26:23;;;;;;;3.80;1.73;;;9.50;68.00;;;;;;5084074;28;20024;-81
2022/04/13 00:28:49;;;;;;;3.40;1.85;;;9.50;68.00;;;;;;5078495;28;20040;-81
2022/04/13 00:31:15;;;;;;;3.00;2.05;;;9.50;68.20;;;;;;5076371;28;20032;-81
2022/04/13 00:33:40;;;;;;;2.88;1.83;;;9.50;68.30;;;;;;5071822;28;20037;-81
2022/04/13 00:36:06;;;;;;;3.22;2.10;;;9.40;68.40;;;;;;5078604;28;20024;-80
2022/04/13 00:38:32;;;;;;;2.47;1.80;;;9.40;68.50;;;;;;5077488;28;20111;-81
2022/04/13 00:40:58;;;;;;;2.90;1.65;;;9.40;68.60;;;;;;5065357;28;20023;-81
2022/04/13 00:43:24;;;;;;;2.40;1.70;;;9.40;68.70;;;;;;5065117;28;20032;-81
2022/04/13 00:45:51;;;;;;;2.78;1.67;;;9.30;69.00;;;;;;5065972;28;20025;-81
2022/04/13 00:48:29;;;;;;;4.50;2.67;;;9.20;69.30;;;;;;5084144;28;20040;-81
2022/04/13 00:50:55;;;;;;;3.67;2.17;;;9.20;69.50;;;;;;5085379;28;20040;-80
2022/04/13 00:53:23;;;;;;;1.60;1.42;;;9.20;69.70;;;;;;5085659;28;20191;-81
2022/04/13 00:55:53;;;;;;;2.83;1.75;;;9.20;69.90;;;;;;5085059;28;20077;-80
2022/04/13 00:58:22;;;;;;;2.92;1.80;;;9.10;70.10;;;;;;5086746;28;20036;-81
2022/04/13 01:00:49;;;;;;;2.65;1.45;;;9.10;70.20;;;;;;5066685;28;20048;-81
2022/04/13 01:03:19;;;;;;;1.85;1.65;;;9.00;70.30;;;;;;5107953;22;20052;-80
2022/04/13 01:05:47;;;;;;;3.38;1.52;;;9.00;70.30;;;;;;5083655;28;20024;-78
2022/04/13 01:08:14;;;;;;;2.20;1.65;;;9.00;70.40;;;;;;5086193;28;20023;-80
2022/04/13 01:10:47;;;;;;;2.10;1.63;;;9.00;70.50;;;;;;5093530;28;20036;-79
2022/04/13 01:13:14;;;;;;;1.75;1.65;;;8.90;70.60;;;;;;5116072;28;20076;-79
2022/04/13 01:15:40;;;;;;;2.53;1.40;;;9.00;70.60;;;;;;5115646;28;20049;-78
2022/04/13 01:18:07;;;;;;;1.38;1.25;;;9.00;70.70;;;;;;5115689;28;20025;-78
2022/04/13 01:20:35;;;;;;;1.90;1.52;;;8.90;70.70;;;;;;5116556;28;20012;-79
2022/04/13 01:23:01;;;;;;;1.85;1.20;;;8.90;70.90;;;;;;5109342;28;20032;-79
2022/04/13 01:25:30;;;;;;;2.05;1.25;;;9.00;71.10;;;;;;5104094;28;20043;-78
2022/04/13 01:27:56;;;;;;;1.60;1.50;;;8.90;71.20;;;;;;5083240;28;20020;-79
2022/04/13 01:30:26;;;;;;;1.80;1.25;;;9.00;71.20;;;;;;5103651;28;20109;-79
2022/04/13 01:32:52;;;;;;;1.30;1.02;;;8.90;71.20;;;;;;5103958;28;20056;-79
2022/04/13 01:35:18;;;;;;;2.28;1.10;;;8.90;71.20;;;;;;5103649;28;20030;-79
2022/04/13 01:37:43;;;;;;;1.55;1.30;;;8.90;71.30;;;;;;5098636;28;20043;-79
2022/04/13 01:40:10;;;;;;;2.00;1.30;;;8.90;71.30;;;;;;5101512;28;20020;-79
2022/04/13 01:42:37;;;;;;;2.03;1.65;;;8.90;71.40;;;;;;5103610;28;20024;-79
2022/04/13 01:45:03;;;;;;;2.20;1.45;;;8.90;71.60;;;;;;5101931;28;20016;-78
2022/04/13 01:47:29;;;;;;;2.05;1.38;;;8.90;72.00;;;;;;5102153;28;20016;-80
2022/04/13 01:49:55;;;;;;;1.88;1.42;;;8.90;72.20;;;;;;5102561;28;20043;-79
2022/04/13 01:52:21;;;;;;;1.83;1.20;;;8.90;72.30;;;;;;5097965;28;20020;-78
2022/04/13 01:54:47;;;;;;;2.45;1.50;;;8.80;72.20;;;;;;5084199;28;20079;-78
2022/04/13 01:57:12;;;;;;;1.65;1.55;;;8.80;72.30;;;;;;5084421;28;20032;-78
2022/04/13 01:59:38;;;;;;;1.92;1.38;;;8.80;72.50;;;;;;5103296;28;20028;-79
2022/04/13 02:02:05;;;;;;;1.92;1.45;;;8.70;72.70;;;;;;5102270;28;20107;-78
2022/04/13 02:04:31;;;;;;;2.28;1.50;;;8.80;72.90;;;;;;5083740;28;20149;-79
2022/04/13 02:06:57;;;;;;;3.10;1.65;;;8.70;73.00;;;;;;5101528;28;20038;-78
2022/04/13 02:09:23;;;;;;;2.67;1.67;;;8.70;73.10;;;;;;5101410;28;20013;-79
2022/04/13 02:11:49;;;;;;;3.60;1.83;;;8.70;73.40;;;;;;5098466;28;20024;-76
2022/04/13 02:14:15;;;;;;;3.00;1.90;;;8.70;73.70;;;;;;5079938;28;20050;-79
2022/04/13 02:16:41;;;;;;;2.47;1.83;;;8.70;73.90;;;;;;5099897;28;20095;-79
2022/04/13 02:19:07;;;;;;;3.85;2.10;;;8.60;74.20;;;;;;5100934;28;20020;-79
2022/04/13 02:21:34;;;;;;;2.22;1.60;;;8.60;74.50;;;;;;5101574;28;20051;-80
2022/04/13 02:23:59;;;;;;;1.95;1.55;;;8.60;74.60;;;;;;5100933;28;20153;-79
2022/04/13 02:26:26;;;;;;;2.55;1.60;;;8.60;74.90;;;;;;5100504;28;20070;-79
2022/04/13 02:28:53;;;;;;;2.47;1.58;;;8.50;74.90;;;;;;5100988;28;20020;-79
2022/04/13 02:31:19;;;;;;;2.30;1.67;;;8.50;75.20;;;;;;5103342;28;20016;-80
2022/04/13 02:33:44;;;;;;;2.08;1.80;;;8.50;75.40;;;;;;5081134;28;20115;-78
2022/04/13 02:36:11;;;;;;;2.03;1.55;;;8.40;75.70;;;;;;5101055;28;20058;-80
2022/04/13 02:38:37;;;;;;;2.15;1.70;;;8.30;76.10;;;;;;5083919;28;20020;-79
2022/04/13 02:41:02;;;;;;;3.17;1.60;;;8.30;76.50;;;;;;5105664;28;20016;-79
2022/04/13 02:43:28;;;;;;;2.13;1.50;;;8.30;76.90;;;;;;5085616;28;20039;-78
2022/04/13 02:45:54;;;;;;;2.85;1.90;;;8.20;77.40;;;;;;5104059;28;20093;-78
2022/04/13 02:48:24;;;;;;;4.68;1.98;;;8.10;77.80;;;;;;5098125;28;20037;-79
2022/04/13 02:50:50;;;;;;;2.45;1.92;;;8.10;78.40;;;;;;5099693;28;20020;-79
2022/04/13 02:53:16;;;;;;;2.03;1.83;;;8.10;78.90;;;;;;5098015;28;20040;-78
2022/04/13 02:55:42;;;;;;;2.80;1.85;;;8.00;79.30;;;;;;5098079;28;20024;-78
2022/04/13 02:58:08;;;;;;;2.78;1.95;;;8.00;79.80;;;;;;5097226;28;20446;-79
2022/04/13 03:00:34;;;;;;;2.58;2.10;;;8.00;80.30;;;;;;5099580;28;20016;-78
2022/04/13 03:02:59;;;;;;;2.55;1.90;;;8.00;80.40;;;;;;5098302;28;20050;-79
2022/04/13 03:05:25;;;;;;;2.78;2.00;;;8.00;80.60;;;;;;5099243;28;20024;-79
2022/04/13 03:07:51;;;;;;;1.98;1.75;;;8.00;80.80;;;;;;5098194;28;20400;-79
2022/04/13 03:10:17;;;;;;;2.20;1.70;;;8.00;81.10;;;;;;5081716;28;20051;-79
2022/04/13 03:12:43;;;;;;;3.22;1.65;;;7.90;81.60;;;;;;5102989;28;20529;-79
2022/04/13 03:15:10;;;;;;;3.38;1.85;;;7.90;82.50;;;;;;5099536;28;20079;-79
2022/04/13 03:17:35;;;;;;;2.92;2.17;;;7.90;83.10;;;;;;5100006;28;20020;-79
2022/04/13 03:20:01;;;;;;;2.53;1.73;;;7.90;83.50;;;;;;5100273;28;20020;-79
2022/04/13 03:22:27;;;;;;;2.65;1.75;;;7.90;83.60;;;;;;5100134;28;20048;-79
2022/04/13 03:24:53;;;;;;;1.58;1.40;;;7.90;83.80;;;;;;5103429;28;20024;-79
2022/04/13 03:27:19;;;;;;;3.13;1.77;;;7.90;83.90;;;;;;5099244;28;20016;-79
2022/04/13 03:29:46;;;;;;;3.95;1.60;;;7.80;84.20;;;;;;5099781;28;20024;-79
2022/04/13 03:32:11;;;;;;;2.95;1.75;;;7.80;84.50;;;;;;5100347;28;20027;-79
2022/04/13 03:34:37;;;;;;;2.10;1.60;;;7.80;85.00;;;;;;5092203;28;20107;-79
2022/04/13 03:37:03;;;;;;;2.67;1.75;;;7.80;85.40;;;;;;5105042;28;20035;-79
2022/04/13 03:39:29;;;;;;;2.70;1.90;;;7.80;85.60;;;;;;5103817;28;20039;-79
2022/04/13 03:41:55;;;;;;;2.22;1.55;;;7.80;85.70;;;;;;5100802;28;20506;-79
2022/04/13 03:44:21;;;;;;;2.15;1.80;;;7.80;86.00;;;;;;5082215;28;20055;-79
2022/04/13 03:46:48;;;;;;;2.90;1.88;;;7.80;86.50;;;;;;5088545;28;20036;-80
2022/04/13 03:49:14;;;;;;;2.35;1.80;;;7.80;87.20;;;;;;5086028;28;20021;-80
2022/04/13 03:51:40;;;;;;;2.22;1.90;;;7.80;87.60;;;;;;5068628;28;20028;-80
2022/04/13 03:54:06;;;;;;;2.92;1.92;;;7.70;88.30;;;;;;5087255;28;20027;-80
2022/04/13 03:56:33;;;;;;;2.75;2.15;;;7.70;88.90;;;;;;5069638;28;20020;-80
2022/04/13 03:59:00;;;;;;;2.92;1.90;;;7.70;89.50;;;;;;5086089;28;20039;-79
2022/04/13 04:01:26;;;;;;;2.90;1.60;;;7.70;90.10;;;;;;5092128;28;20058;-80
2022/04/13 04:03:53;;;;;;;1.55;1.45;;;7.70;90.30;;;;;;5105534;28;20034;-80
2022/04/13 04:06:19;;;;;;;3.03;1.67;;;7.70;90.40;;;;;;5104812;28;20020;-81
2022/04/13 04:08:45;;;;;;;2.80;1.98;;;7.60;90.50;;;;;;5087388;28;20039;-79
2022/04/13 04:11:11;;;;;;;1.88;1.40;;;7.70;90.70;;;;;;5108169;28;20028;-80
2022/04/13 04:13:37;;;;;;;1.83;1.35;;;7.70;90.80;;;;;;5106696;28;20032;-79
2022/04/13 04:16:04;;;;;;;1.92;1.50;;;7.60;90.80;;;;;;5109329;28;20099;-79
2022/04/13 04:18:29;;;;;;;2.05;1.40;;;7.60;91.00;;;;;;5101933;28;20039;-80
2022/04/13 04:20:55;;;;;;;1.60;1.50;;;7.60;91.20;;;;;;5104574;28;20031;-80
2022/04/13 04:23:21;;;;;;;2.15;1.55;;;7.70;91.30;;;;;;5105373;28;20044;-79
2022/04/13 04:25:47;;;;;;;1.30;1.20;;;7.70;91.40;;;;;;5100570;28;20077;-79
2022/04/13 04:28:12;;;;;;;1.77;1.42;;;7.60;91.40;;;;;;5098017;28;20026;-79
2022/04/13 04:30:39;;;;;;;2.00;1.70;;;7.60;91.60;;;;;;5082262;28;20435;-79
2022/04/13 04:33:06;;;;;;;1.77;1.42;;;7.60;91.80;;;;;;5099447;28;20035;-80
2022/04/13 04:35:33;;;;;;;2.80;1.90;;;7.60;92.10;;;;;;5101955;28;20035;-80
2022/04/13 04:37:59;;;;;;;2.28;1.80;;;7.60;92.40;;;;;;5102061;28;20046;-79
2022/04/13 04:40:26;;;;;;;2.72;1.98;;;7.60;92.80;;;;;;5100220;28;20024;-78
2022/04/13 04:42:52;;;;;;;2.65;1.60;;;7.50;92.70;;;;;;5098697;28;20082;-80
2022/04/13 04:45:22;;;;;;;2.88;1.77;;;7.60;92.80;;;;;;5100653;28;20021;-78
2022/04/13 04:47:49;;;;;;;2.00;1.80;;;7.60;92.80;;;;;;5103105;28;20139;-81
2022/04/13 04:50:16;;;;;;;2.67;1.83;;;7.60;92.80;;;;;;5101108;28;20094;-80
2022/04/13 04:52:43;;;;;;;2.78;2.05;;;7.60;92.70;;;;;;5098519;28;20043;-79
2022/04/13 04:55:10;;;;;;;3.10;2.05;;;7.60;92.80;;;;;;5079324;28;20024;-79
2022/04/13 04:57:35;;;;;;;2.97;1.60;;;7.60;92.80;;;;;;5096356;28;20087;-79
2022/04/13 05:00:02;;;;;;;2.55;1.33;;;7.70;92.90;;;;;;5097333;28;20051;-78
2022/04/13 05:02:28;;;;;;;1.80;1.35;;;7.80;92.80;;;;;;5095679;28;20032;-79
2022/04/13 05:04:53;;;;;;;1.58;1.35;;;7.90;92.70;;;;;;5095754;28;20028;-77
2022/04/13 05:07:19;;;;;;;3.45;1.67;;;8.00;92.60;;;;;;5097125;28;20077;-78
2022/04/13 05:09:45;;;;;;;1.70;1.60;;;8.20;92.50;;;;;;5093103;28;20032;-79
2022/04/13 05:12:11;;;;;;;2.05;1.73;;;8.30;92.40;;;;;;5093821;28;20020;-78
2022/04/13 05:14:36;;;;;;;4.15;1.92;;;8.40;92.30;;;;;;5075259;28;20506;-78
2022/04/13 05:17:02;;;;;;;5.05;2.80;;;8.60;92.20;;;;;;5084248;28;20036;-79
2022/04/13 05:19:28;;;;;;;5.07;3.72;;;8.70;92.00;;;;;;5100425;28;20028;-79
2022/04/13 05:21:54;;;;;;;6.43;3.85;;;8.90;91.90;;;;;;5099683;28;20076;-79
2022/04/13 05:24:19;;;;;;;5.35;3.13;;;9.10;91.80;;;;;;5087164;28;20326;-79
2022/04/13 05:26:45;;;;;;;3.05;2.38;;;9.30;91.60;;;;;;5102241;28;20041;-78
2022/04/13 05:29:11;;;;;;;2.95;1.92;;;9.40;91.40;;;;;;5108792;28;20456;-79
2022/04/13 05:31:36;;;;;;;4.03;2.97;;;9.50;91.30;;;;;;5113370;28;20028;-78
2022/04/13 05:34:02;;;;;;;3.40;2.55;;;9.60;91.10;;;;;;5099213;28;20028;-78
2022/04/13 05:36:28;;;;;;;3.80;2.13;;;9.70;90.80;;;;;;5099557;28;20361;-78
2022/04/13 05:38:53;;;;;;;4.18;2.50;;;9.90;90.50;;;;;;5100631;28;20020;-78
2022/04/13 05:41:19;;;;;;;2.55;1.92;;;10.00;90.20;;;;;;5111245;28;20076;-78
2022/04/13 05:43:45;;;;;;;6.05;2.85;;;10.10;89.70;;;;;;5120452;28;20424;-80
2022/04/13 05:46:10;;;;;;;5.35;2.97;;;10.20;88.70;;;;;;5121912;28;21164;-78
2022/04/13 05:48:39;;;;;;;5.68;2.92;;;10.20;88.00;;;;;;5097378;28;20019;-78
2022/04/13 05:51:05;;;;;;;2.75;2.30;;;10.30;87.70;;;;;;5110136;28;20020;-78
2022/04/13 05:53:31;;;;;;;3.50;2.65;;;10.40;87.40;;;;;;5109896;28;20468;-79
2022/04/13 05:55:56;;;;;;;3.28;2.33;;;10.40;86.70;;;;;;5134901;28;20070;-78
2022/04/13 05:58:24;;;;;;;4.10;2.55;;;10.50;86.20;;;;;;5126461;28;20024;-79
2022/04/13 06:00:50;;;;;;;4.82;2.80;;;10.60;86.00;;;;;;5120347;28;20012;-79
2022/04/13 06:03:17;;;;;;;4.35;2.40;;;10.70;85.50;;;;;;5100279;28;20050;-78
2022/04/13 06:05:44;;;;;;;2.28;1.98;;;10.80;85.30;;;;;;5112598;28;20104;-79
2022/04/13 06:08:09;;;;;;;3.63;2.78;;;11.00;84.60;;;;;;5081296;28;20021;-78
2022/04/13 06:10:35;;;;;;;2.88;2.10;;;11.10;83.80;;;;;;5062007;28;20085;-80
2022/04/13 06:13:01;;;;;;;3.03;2.03;;;11.20;83.50;;;;;;5081362;28;20103;-79
2022/04/13 06:15:28;;;;;;;3.20;2.50;;;11.30;83.00;;;;;;5090425;28;20473;-79
2022/04/13 06:17:54;;;;;;;4.63;2.30;;;11.30;82.40;;;;;;5101140;28;20079;-79
2022/04/13 06:20:20;;;;;;;3.03;2.05;;;11.40;82.20;;;;;;5103254;28;20020;-78
2022/04/13 06:22:46;;;;;;;3.17;2.67;;;11.60;81.80;;;;;;5084253;28;20039;-79
2022/04/13 06:25:12;;;;;;;3.58;1.92;;;11.70;81.10;;;;;;5102373;28;20016;-79
2022/04/13 06:27:40;;;;;;;2.45;1.85;;;11.80;80.40;;;;;;5102526;28;20459;-79
2022/04/13 06:30:07;;;;;;;2.30;2.10;;;11.80;80.10;;;;;;5101851;28;20036;-79
2022/04/13 06:32:46;;;;;;;2.08;1.88;;;11.90;80.20;;;;;;5099936;28;20465;-78
2022/04/13 06:35:16;;;;;;;2.20;1.73;;;11.90;79.50;;;;;;5095872;28;20472;-79
2022/04/13 06:37:44;;;;;;;3.53;1.95;;;12.00;79.10;;;;;;5097842;28;20476;-79
2022/04/13 06:40:10;;;;;;;2.45;2.10;;;12.20;79.00;;;;;;5089139;28;20060;-79
2022/04/13 06:42:37;;;;;;;2.83;1.60;;;12.30;78.40;;;;;;5101703;28;20024;-79
2022/04/13 06:45:08;;;;;;;1.52;1.42;;;12.50;77.80;;;;;;5089097;28;20017;-79
2022/04/13 06:47:33;;;;;;;3.08;1.80;;;12.60;77.10;;;;;;5076554;28;20104;-78
2022/04/13 06:50:02;;;;;;;1.67;1.50;;;12.80;76.80;;;;;;5095486;28;20106;-79
2022/04/13 06:52:33;;;;;;;1.77;1.38;;;12.80;76.20;;;;;;5078421;28;20025;-79
2022/04/13 06:54:58;;;;;;;2.78;1.63;;;12.90;75.70;;;;;;5079099;28;20384;-79
2022/04/13 06:57:24;;;;;;;2.35;1.67;;;13.00;75.40;;;;;;5075741;28;20035;-78
2022/04/13 06:59:50;;;;;;;3.47;1.95;;;13.10;74.80;;;;;;5075758;28;20013;-79
2022/04/13 07:02:15;;;;;;;4.50;3.10;;;13.30;74.50;;;;;;5096095;28;20028;-78
2022/04/13 07:04:41;;;;;;;5.07;2.53;;;13.40;73.70;;;;;;5095321;28;20020;-78
2022/04/13 07:07:07;;;;;;;2.42;1.80;;;13.50;73.60;;;;;;5094351;28;20032;-78
2022/04/13 07:09:33;;;;;;;3.53;2.10;;;13.50;73.20;;;;;;5096225;28;20484;-79
2022/04/13 07:11:59;;;;;;;3.20;2.10;;;13.50;72.70;;;;;;5096587;28;20472;-78
2022/04/13 07:14:25;;;;;;;2.42;1.70;;;13.60;72.40;;;;;;5096482;28;20036;-79
2022/04/13 07:16:51;;;;;;;3.35;2.03;;;13.70;72.20;;;;;;5097293;28;20028;-78
2022/04/13 07:19:17;;;;;;;4.03;1.88;;;13.80;71.70;;;;;;5085922;28;20083;-78
2022/04/13 07:21:43;;;;;;;3.47;2.05;;;14.00;71.30;;;;;;5085005;28;20016;-78
2022/04/13 07:24:10;;;;;;;3.70;2.25;;;14.20;70.30;;;;;;5076922;28;20029;-79
2022/04/13 07:26:36;;;;;;;3.00;2.38;;;14.30;69.40;;;;;;5075755;28;20196;-78
2022/04/13 07:29:02;;;;;;;3.70;1.80;;;14.40;68.90;;;;;;5075408;28;20025;-78
2022/04/13 07:31:28;;;;;;;2.88;2.15;;;14.60;68.70;;;;;;5079217;28;20082;-77
2022/04/13 07:33:55;;;;;;;2.78;1.77;;;14.70;68.10;;;;;;5095926;28;20020;-79
2022/04/13 07:36:21;;;;;;;2.22;1.83;;;14.80;67.70;;;;;;5076799;28;20071;-78
2022/04/13 07:38:46;;;;;;;2.78;1.48;;;15.00;66.90;;;;;;5074444;28;20036;-78
2022/04/13 07:41:12;;;;;;;2.40;1.60;;;15.20;66.80;;;;;;5079350;28;20016;-79
2022/04/13 07:43:38;;;;;;;3.13;1.77;;;15.20;66.10;;;;;;5077766;28;20096;-78
2022/04/13 07:46:03;;;;;;;4.45;1.85;;;15.20;66.30;;;;;;5074951;28;20099;-77
2022/04/13 07:48:30;;;;;;;2.72;1.52;;;15.30;66.10;;;;;;5076092;28;20021;-79
2022/04/13 07:50:56;;;;;;;3.28;2.08;;;15.50;65.10;;;;;;5067520;28;20480;-79
2022/04/13 07:53:21;;;;;;;7.78;3.03;;;15.50;64.10;;;;;;5080345;28;20039;-79
2022/04/13 07:55:47;;;;;;;5.03;2.22;;;15.50;63.90;;;;;;5098509;28;20071;-78
2022/04/13 07:58:13;;;;;;;3.53;2.38;;;15.50;64.20;;;;;;5096560;28;20035;-77
2022/04/13 08:00:38;;;;;;;7.20;2.97;;;15.60;63.90;;;;;;5076671;28;20146;-78
2022/04/13 08:03:05;;;;;;;2.92;1.60;;;15.80;63.30;;;;;;5095322;28;20108;-79
2022/04/13 08:05:32;;;;;;;11.23;2.28;;;15.90;62.70;;;;;;5097484;28;20024;-79
2022/04/13 08:07:57;;;;;;;2.65;1.85;;;15.90;62.10;;;;;;5098353;28;20023;-78
2022/04/13 08:10:24;;;;;;;1.80;1.60;;;16.00;62.10;;;;;;5098680;28;20032;-78
2022/04/13 08:12:50;;;;;;;5.65;2.05;;;16.20;62.60;;;;;;5096674;28;20020;-78
2022/04/13 08:15:16;;;;;;;3.05;1.90;;;16.40;60.80;;;;;;5081577;28;20028;-78
2022/04/13 08:17:42;;;;;;;2.22;1.50;;;16.60;60.30;;;;;;5098488;28;20028;-79
2022/04/13 08:20:11;;;;;;;2.78;1.50;;;16.90;60.00;;;;;;5097404;28;20613;-78
2022/04/13 08:22:37;;;;;;;3.72;1.55;;;17.10;59.10;;;;;;5084260;28;20047;-79
2022/04/13 08:25:04;;;;;;;2.72;1.50;;;17.40;58.40;;;;;;5058679;28;20099;-79
2022/04/13 08:27:29;;;;;;;4.65;1.50;;;17.70;57.80;;;;;;5076108;28;20051;-78
2022/04/13 08:29:55;;;;;;;2.53;1.70;;;17.80;57.40;;;;;;5074880;28;20032;-78
2022/04/13 08:32:21;;;;;;;2.95;1.60;;;17.80;56.90;;;;;;5088512;28;20024;-79
2022/04/13 08:34:51;;;;;;;2.70;2.00;;;17.60;57.00;;;;;;5085006;28;20020;-78
2022/04/13 08:37:21;;;;;;;4.50;1.98;;;17.80;56.60;;;;;;5082341;28;20035;-79
2022/04/13 08:39:47;;;;;;;3.38;1.88;;;17.80;56.10;;;;;;5081008;28;20024;-79
2022/04/13 08:42:16;;;;;;;3.85;2.05;;;18.10;55.80;;;;;;5095281;28;20020;-78
2022/04/13 08:44:46;;;;;;;3.17;1.95;;;18.00;54.80;;;;;;5077313;28;20373;-79
2022/04/13 08:47:20;;;;;;;2.03;1.83;;;18.00;54.90;;;;;;5096000;28;20094;-79
2022/04/13 08:49:50;;;;;;;2.58;1.45;;;18.00;54.50;;;;;;5096102;28;20468;-79
2022/04/13 08:52:29;;;;;;;1.85;1.30;;;18.10;55.00;;;;;;5097079;28;20032;-80
2022/04/13 08:55:09;;;;;;;2.22;1.58;;;18.40;54.60;;;;;;5096887;28;20488;-80
2022/04/13 08:57:48;;;;;;;4.38;2.00;;;18.70;53.40;;;;;;5096762;28;20453;-79
2022/04/13 09:00:18;;;;;;;3.45;1.33;;;18.70;52.60;;;;;;5097570;28;20135;-79
2022/04/13 09:02:47;;;;;;;2.03;1.48;;;18.80;52.90;;;;;;5097117;28;20032;-79
2022/04/13 09:05:33;;;;;;;4.22;2.10;;;18.80;52.70;;;;;;5079763;28;20016;-79
2022/04/13 09:08:14;;;;;;;1.85;1.40;;;18.70;52.80;;;;;;5100290;28;20043;-79
2022/04/13 09:10:41;;;;;;;1.27;1.00;;;18.80;52.80;;;;;;5110241;28;20426;-79
2022/04/13 09:13:11;;;;;;;1.02;0.98;;;19.20;52.10;;;;;;5101994;28;20384;-79
2022/04/13 09:15:40;;;;;;;2.03;1.30;;;19.50;51.50;;;;;;5101109;28;20044;-79
2022/04/13 09:18:09;;;;;;;3.58;1.70;;;19.50;51.00;;;;;;5100614;28;20029;-79
2022/04/13 09:20:36;;;;;;;2.42;1.60;;;19.70;50.80;;;;;;5101640;28;20024;-81
2022/04/13 09:23:02;;;;;;;2.45;1.70;;;19.80;51.00;;;;;;5102084;28;20071;-80
2022/04/13 09:25:31;;;;;;;3.97;1.65;;;19.90;50.70;;;;;;5101668;28;20078;-79
2022/04/13 09:27:59;;;;;;;6.13;2.08;;;19.90;50.50;;;;;;5100679;28;20493;-79
2022/04/13 09:30:25;;;;;;;3.92;1.92;;;19.90;50.60;;;;;;5100889;28;20035;-80
2022/04/13 09:32:51;;;;;;;3.05;2.40;;;20.00;50.60;;;;;;5081972;28;20333;-79
2022/04/13 09:35:20;;;;;;;3.80;2.15;;;20.00;50.70;;;;;;5100592;28;20042;-79
2022/04/13 09:37:47;;;;;;;6.13;1.85;;;20.00;51.20;;;;;;5100780;28;20028;-80
2022/04/13 09:40:41;;;;;;;5.00;2.05;;;20.00;51.60;;;;;;5098023;28;20358;-79
2022/04/13 09:43:14;;;;;;;4.88;2.35;;;20.10;51.40;;;;;;5099581;28;20073;-79
2022/04/13 09:45:47;;;;;;;5.10;2.78;;;20.20;51.30;;;;;;5098885;28;20031;-79
2022/04/13 09:48:21;;;;;;;5.07;2.38;;;20.30;50.70;;;;;;5080200;28;20119;-79
2022/04/13 09:50:51;;;;;;;3.85;1.92;;;20.40;50.80;;;;;;5099671;28;20020;-79
2022/04/13 09:53:19;;;;;;;2.53;1.83;;;20.50;50.80;;;;;;5111901;28;20083;-79
2022/04/13 09:55:48;;;;;;;8.20;2.60;;;20.60;50.80;;;;;;5111952;28;20083;-80
2022/04/13 09:58:17;;;;;;;6.78;3.13;;;20.80;50.40;;;;;;5112070;28;20039;-79
2022/04/13 10:00:45;;;;;;;11.13;3.20;;;20.60;49.90;;;;;;5084604;28;20028;-79
2022/04/13 10:03:17;;;;;;;5.07;3.00;;;20.30;51.30;;;;;;5095250;28;20043;-79
2022/04/13 10:05:44;;;;;;;;;;;20.00;51.80;;;;;;5101016;28;20123;-78
2022/04/13 10:08:11;;;;;;;5.15;2.95;;;20.00;51.80;;;;;;5100480;28;19995;-79
2022/04/13 10:10:42;;;;;;;5.43;2.47;;;20.10;51.90;;;;;;5083823;28;20084;-79
2022/04/13 10:13:08;;;;;;;3.30;2.05;;;20.30;51.20;;;;;;5100814;28;20042;-79
2022/04/13 10:15:34;;;;;;;2.63;1.55;;;20.50;51.00;;;;;;5087045;28;20024;-79
2022/04/13 10:18:01;;;;;;;4.78;1.70;;;20.90;50.80;;;;;;5108976;28;20031;-79
2022/04/13 10:20:46;;;;;;;5.03;1.40;;;21.30;49.70;;;;;;5084293;28;20424;-79
2022/04/13 10:23:14;;;;;;;2.25;2.03;;;21.70;49.30;;;;;;5096576;28;20056;-79
2022/04/13 10:25:40;;;;;;;3.78;2.00;;;22.00;48.10;;;;;;5098057;28;20123;-80
2022/04/13 10:28:06;;;;;;;5.90;3.15;;;22.00;47.60;;;;;;5086691;28;20036;-79
2022/04/13 10:30:42;;;;;;;6.50;3.13;;;22.10;47.40;;;;;;5062831;28;20036;-79
2022/04/13 10:33:11;;;;;;;6.30;2.83;;;21.80;47.80;;;;;;5106767;28;20082;-78
2022/04/13 10:35:42;;;;;;;5.65;2.70;;;21.60;48.20;;;;;;5100570;28;20111;-79
2022/04/13 10:38:08;;;;;;;4.95;3.30;;;21.60;49.10;;;;;;5099340;28;20094;-79
2022/04/13 10:40:38;;;;;;;4.32;3.33;;;21.60;48.40;;;;;;5090576;28;20028;-79
2022/04/13 10:43:05;;;;;;;11.35;4.32;;;21.50;48.90;;;;;;5079346;28;20099;-79
2022/04/13 10:45:33;;;;;;;6.72;3.30;;;21.30;49.10;;;;;;5079859;28;20108;-79
2022/04/13 10:48:08;;;;;;;5.78;3.45;;;21.20;50.00;;;;;;5078472;28;20389;-79
2022/04/13 10:50:57;;;;;;;7.63;4.00;;;21.20;49.80;;;;;;5082459;28;20111;-79
2022/04/13 10:53:33;;;;;;;5.15;3.42;;;21.40;49.60;;;;;;5079422;28;20388;-79
2022/04/13 10:56:00;;;;;;;5.13;3.28;;;21.60;49.60;;;;;;5081165;28;20032;-79
2022/04/13 10:58:50;;;;;;;3.80;3.38;;;22.00;49.00;;;;;;5077984;28;20020;-78
2022/04/13 11:01:19;;;;;;;5.72;4.47;;;22.00;48.60;;;;;;5090055;28;20036;-79
2022/04/13 11:03:47;;;;;;;6.72;3.30;;;22.00;48.30;;;;;;5101743;28;20337;-78
2022/04/13 11:06:13;;;;;;;3.95;3.40;;;21.90;49.10;;;;;;5101173;28;20125;-79
2022/04/13 11:08:55;;;;;;;9.48;4.10;;;21.90;48.90;;;;;;5098280;28;20024;-79
2022/04/13 11:11:23;;;;;;;5.88;3.78;;;21.90;48.40;;;;;;5081753;28;20028;-79
2022/04/13 11:13:51;;;;;;;8.25;4.97;;;21.60;49.60;;;;;;5104189;28;20024;-79
2022/04/13 11:16:21;;;;;;;7.70;4.53;;;21.60;50.40;;;;;;5086524;28;20052;-82
2022/04/13 11:19:05;;;;;;;6.07;4.18;;;21.60;50.90;;;;;;5099568;28;20039;-79
2022/04/13 11:21:55;;;;;;;4.65;4.00;;;21.90;50.90;;;;;;5074942;28;20050;-79
2022/04/13 11:24:41;;;;;;;7.07;3.90;;;22.00;50.20;;;;;;5063923;28;20112;-80
2022/04/13 11:27:08;;;;;;;8.50;3.80;;;22.10;49.30;;;;;;5086630;28;20074;-78
2022/04/13 11:29:36;;;;;;;4.40;4.00;;;22.20;48.30;;;;;;5098287;28;20053;-81
2022/04/13 11:32:04;;;;;;;4.55;2.72;;;22.20;48.20;;;;;;5080360;28;20039;-78
2022/04/13 11:34:30;;;;;;;8.25;4.55;;;22.30;48.80;;;;;;5101066;28;20028;-79
2022/04/13 11:37:02;;;;;;;5.60;4.10;;;22.50;47.70;;;;;;5098813;28;20090;-77
2022/04/13 11:39:53;;;;;;;5.60;4.65;;;22.30;47.70;;;;;;5082336;28;20477;-78
2022/04/13 11:42:27;;;;;;;5.82;3.50;;;22.40;47.20;;;;;;5097318;28;20028;-79
2022/04/13 11:45:16;;;;;;;7.60;3.47;;;22.30;47.90;;;;;;5095863;28;20073;-77
2022/04/13 11:47:50;;;;;;;6.13;4.47;;;22.40;48.10;;;;;;5097757;28;20028;-79
2022/04/13 11:50:18;;;;;;;5.50;4.43;;;22.80;46.40;;;;;;5079466;28;20373;-79
2022/04/13 11:53:05;;;;;;;8.43;3.80;;;22.80;45.60;;;;;;5096911;28;20115;-77
2022/04/13 11:55:40;;;;;;;7.45;4.55;;;22.60;46.10;;;;;;5079029;28;20116;-78
2022/04/13 11:58:08;;;;;;;4.68;3.65;;;22.60;45.40;;;;;;5096567;28;20087;-78
2022/04/13 12:00:59;;;;;;;12.02;5.50;;;22.50;46.60;;;;;;5079834;28;20051;-78
2022/04/13 12:03:34;;;;;;;7.18;5.10;;;22.50;46.20;;;;;;5092298;28;20032;-79
2022/04/13 12:06:01;;;;;;;8.85;4.07;;;22.30;46.80;;;;;;5096102;28;20028;-77
2022/04/13 12:08:41;;;;;;;5.47;4.13;;;22.30;47.30;;;;;;5097175;28;20031;-78
2022/04/13 12:11:11;;;;;;;6.70;5.82;;;22.30;47.30;;;;;;5098632;28;20055;-78
2022/04/13 12:13:50;;;;;;;6.80;5.40;;;22.40;47.00;;;;;;5097175;28;20453;-78
2022/04/13 12:16:28;;;;;;;7.32;5.28;;;22.50;46.70;;;;;;5084841;28;20468;-78
2022/04/13 12:18:59;;;;;;;7.82;5.70;;;22.40;46.90;;;;;;5096269;28;20035;-78
2022/04/13 12:21:26;;;;;;;8.98;5.63;;;22.30;46.90;;;;;;5095463;28;20388;-78
2022/04/13 12:23:53;;;;;;;6.03;4.75;;;22.20;46.60;;;;;;5094621;28;20056;-78
2022/04/13 12:26:35;;;;;;;6.00;3.95;;;22.20;47.10;;;;;;5098589;28;20020;-79
2022/04/13 12:29:12;;;;;;;7.30;4.32;;;22.50;46.80;;;;;;5097355;28;20084;-79
2022/04/13 12:31:52;;;;;;;5.15;3.90;;;22.90;46.00;;;;;;5098955;28;20020;-78
2022/04/13 12:34:20;;;;;;;6.07;3.92;;;22.90;46.10;;;;;;5095806;28;20020;-79
2022/04/13 12:36:57;;;;;;;6.38;4.78;;;23.00;46.20;;;;;;5102830;28;20036;-79
2022/04/13 12:39:27;;;;;;;6.25;5.43;;;23.00;45.90;;;;;;5106693;28;20028;-79
2022/04/13 12:41:54;;;;;;;7.30;4.47;;;23.00;45.60;;;;;;5083899;28;20087;-78
2022/04/13 12:44:21;;;;;;;7.35;5.15;;;23.00;46.20;;;;;;5081694;28;20029;-79
2022/04/13 12:46:47;;;;;;;5.72;4.53;;;23.20;46.00;;;;;;5083690;28;20024;-78
2022/04/13 12:49:20;;;;;;;6.20;5.60;;;23.60;45.40;;;;;;5062312;28;20024;-78
2022/04/13 12:51:47;;;;;;;5.85;4.35;;;23.50;45.10;;;;;;5080190;28;20501;-78
2022/04/13 12:54:17;;;;;;;5.25;2.63;;;23.30;46.00;;;;;;5082390;28;20024;-78
2022/04/13 12:56:50;;;;;;;9.90;5.75;;;23.50;46.30;;;;;;5082019;28;20027;-78